createdAt,value
2022-09-26T00:00:46.238Z,95746
2022-09-26T00:01:46.340Z,95745
2022-09-26T00:02:46.262Z,95749
2022-09-26T00:03:46.257Z,95750
2022-09-26T00:04:46.260Z,95750
2022-09-26T00:05:46.239Z,95749
2022-09-26T00:06:46.228Z,95748
2022-09-26T00:07:46.249Z,95748
2022-09-26T00:08:46.275Z,95747
2022-09-26T00:09:46.257Z,95747
2022-09-26T00:10:46.237Z,95742
2022-09-26T00:11:46.246Z,95742
2022-09-26T00:12:46.245Z,95742
2022-09-26T00:13:46.270Z,95742
2022-09-26T00:14:46.254Z,95746
2022-09-26T00:15:46.264Z,95750
2022-09-26T00:16:46.336Z,95748
2022-09-26T00:17:46.255Z,95748
2022-09-26T00:18:46.297Z,95745
2022-09-26T00:20:46.269Z,95743
2022-09-26T00:22:46.294Z,95746
2022-09-26T00:24:46.339Z,95746
2022-09-26T00:25:46.275Z,95746
2022-09-26T00:26:46.287Z,95744
2022-09-26T00:27:46.286Z,95742
2022-09-26T00:28:46.283Z,95742
2022-09-26T00:29:46.368Z,95736
2022-09-26T00:30:46.338Z,95736
2022-09-26T00:31:46.310Z,95730
2022-09-26T00:33:46.333Z,95727
2022-09-26T00:34:46.332Z,95727
2022-09-26T00:35:46.305Z,95724
2022-09-26T00:36:46.318Z,95724
2022-09-26T00:38:46.344Z,95722
2022-09-26T00:39:46.340Z,95724
2022-09-26T00:40:46.410Z,95728
2022-09-26T00:42:46.315Z,95726
2022-09-26T00:43:46.342Z,95723
2022-09-26T00:44:46.382Z,95720
2022-09-26T00:45:46.437Z,95720
2022-09-26T00:47:46.330Z,95718
2022-09-26T00:48:46.337Z,95721
2022-09-26T00:50:46.372Z,95714
2022-09-26T00:51:46.362Z,95713
2022-09-26T00:52:46.354Z,95709
2022-09-26T00:54:46.362Z,95708
2022-09-26T00:56:46.402Z,95706
2022-09-26T00:59:46.378Z,95702
2022-09-26T01:01:46.536Z,95702
2022-09-26T01:02:46.454Z,95701
2022-09-26T01:03:46.386Z,95700
2022-09-26T01:04:46.368Z,95700
2022-09-26T01:05:46.374Z,95697
2022-09-26T01:06:46.428Z,95696
2022-09-26T01:08:46.403Z,95695
2022-09-26T01:10:46.412Z,95694
2022-09-26T01:11:46.454Z,95690
2022-09-26T01:12:46.404Z,95687
2022-09-26T01:13:46.426Z,95684
2022-09-26T01:14:46.434Z,95683
2022-09-26T01:15:46.398Z,95683
2022-09-26T01:16:46.471Z,95683
2022-09-26T01:17:46.418Z,95683
2022-09-26T01:18:46.418Z,95685
2022-09-26T01:19:46.420Z,95681
2022-09-26T01:20:46.435Z,95680
2022-09-26T01:21:46.462Z,95682
2022-09-26T01:23:46.433Z,95680
2022-09-26T01:24:46.420Z,95680
2022-09-26T01:25:46.447Z,95679
2022-09-26T01:26:46.457Z,95679
2022-09-26T01:28:46.441Z,95675
2022-09-26T01:29:46.448Z,95678
2022-09-26T01:30:46.475Z,95681
2022-09-26T01:31:46.472Z,95681
2022-09-26T01:32:46.441Z,95681
2022-09-26T01:33:46.449Z,95681
2022-09-26T01:34:46.477Z,95679
2022-09-26T01:35:46.465Z,95682
2022-09-26T01:36:46.471Z,95682
2022-09-26T01:37:46.489Z,95682
2022-09-26T01:39:46.494Z,95678
2022-09-26T01:40:46.505Z,95678
2022-09-26T01:41:46.497Z,95673
2022-09-26T01:42:46.481Z,95669
2022-09-26T01:47:46.520Z,95659
2022-09-26T01:48:46.484Z,95662
2022-09-26T01:50:46.495Z,95658
2022-09-26T01:51:46.502Z,95658
2022-09-26T01:52:46.543Z,95661
2022-09-26T01:54:46.567Z,95659
2022-09-26T01:55:46.515Z,95659
2022-09-26T01:58:46.554Z,95658
2022-09-26T02:00:46.588Z,95658
2022-09-26T02:01:46.615Z,95661
2022-09-26T02:03:46.548Z,95657
2022-09-26T02:04:46.538Z,95658
2022-09-26T02:05:46.539Z,95655
2022-09-26T02:06:46.536Z,95654
2022-09-26T02:08:46.584Z,95653
2022-09-26T02:09:46.555Z,95651
2022-09-26T02:10:46.572Z,95651
2022-09-26T02:15:46.567Z,95654
2022-09-26T02:17:46.552Z,95655
2022-09-26T02:19:46.576Z,95647
2022-09-26T02:20:46.602Z,95646
2022-09-26T02:21:46.587Z,95646
2022-09-26T02:22:46.573Z,95647
2022-09-26T02:23:46.573Z,95646
2022-09-26T02:26:46.623Z,95640
2022-09-26T02:28:46.614Z,95639
2022-09-26T02:29:46.609Z,95640
2022-09-26T02:30:46.589Z,95634
2022-09-26T02:31:46.723Z,95634
2022-09-26T02:33:46.609Z,95631
2022-09-26T02:34:46.595Z,95631
2022-09-26T02:36:46.675Z,95628
2022-09-26T02:37:46.626Z,95628
2022-09-26T02:40:46.695Z,95631
2022-09-26T02:42:46.651Z,95624
2022-09-26T02:45:46.733Z,95618
2022-09-26T02:46:46.644Z,95617
2022-09-26T02:47:46.660Z,95620
2022-09-26T02:48:46.638Z,95620
2022-09-26T02:51:46.655Z,95617
2022-09-26T02:53:46.686Z,95620
2022-09-26T02:56:46.680Z,95615
2022-09-26T02:57:46.667Z,95615
2022-09-26T03:00:46.790Z,95614
2022-09-26T03:04:46.772Z,95616
2022-09-26T03:05:46.749Z,95620
2022-09-26T03:06:46.716Z,95620
2022-09-26T03:07:46.705Z,95618
2022-09-26T03:08:46.681Z,95620
2022-09-26T03:09:46.706Z,95615
2022-09-26T03:12:46.885Z,95615
2022-09-26T03:14:46.710Z,95618
2022-09-26T03:15:46.712Z,95610
2022-09-26T03:18:46.733Z,95607
2022-09-26T03:22:46.742Z,95608
2022-09-26T03:25:46.753Z,95607
2022-09-26T03:26:46.726Z,95607
2022-09-26T03:27:46.741Z,95611
2022-09-26T03:29:46.747Z,95609
2022-09-26T03:30:46.793Z,95610
2022-09-26T03:31:46.860Z,95609
2022-09-26T03:32:46.747Z,95607
2022-09-26T03:34:46.750Z,95606
2022-09-26T03:35:46.804Z,95604
2022-09-26T03:37:46.777Z,95598
2022-09-26T03:40:46.953Z,95594
2022-09-26T03:41:46.776Z,95594
2022-09-26T03:43:46.777Z,95589
2022-09-26T03:44:46.809Z,95592
2022-09-26T03:45:46.862Z,95590
2022-09-26T03:46:46.788Z,95593
2022-09-26T03:49:46.793Z,95594
2022-09-26T03:51:46.833Z,95592
2022-09-26T03:53:46.802Z,95592
2022-09-26T03:54:46.834Z,95588
2022-09-26T03:56:46.889Z,95582
2022-09-26T03:58:46.818Z,95583
2022-09-26T03:59:46.841Z,95580
2022-09-26T04:00:46.844Z,95580
2022-09-26T04:01:46.928Z,95577
2022-09-26T04:02:46.808Z,95577
2022-09-26T04:03:50.570Z,95574
2022-09-26T04:07:46.895Z,95573
2022-09-26T04:08:46.853Z,95573
2022-09-26T04:09:46.877Z,95569
2022-09-26T04:12:47.199Z,95569
2022-09-26T04:15:46.890Z,95561
2022-09-26T04:18:46.889Z,95556
2022-09-26T04:19:46.891Z,95555
2022-09-26T04:21:46.883Z,95556
2022-09-26T04:22:46.890Z,95554
2022-09-26T04:23:46.941Z,95554
2022-09-26T04:25:46.893Z,95554
2022-09-26T04:26:46.887Z,95554
2022-09-26T04:27:46.905Z,95548
2022-09-26T04:32:46.929Z,95550
2022-09-26T04:33:46.925Z,95544
2022-09-26T04:35:46.912Z,95541
2022-09-26T04:36:46.915Z,95541
2022-09-26T04:39:46.930Z,95541
2022-09-26T04:40:46.943Z,95540
2022-09-26T04:41:46.934Z,95540
2022-09-26T04:44:46.961Z,95539
2022-09-26T04:45:46.970Z,95540
2022-09-26T04:48:46.956Z,95531
2022-09-26T04:50:46.966Z,95534
2022-09-26T04:51:46.933Z,95537
2022-09-26T04:52:46.997Z,95538
2022-09-26T04:53:46.946Z,95533
2022-09-26T04:54:47.000Z,95528
2022-09-26T04:55:46.980Z,95528
2022-09-26T04:56:46.958Z,95528
2022-09-26T04:57:46.970Z,95528
2022-09-26T04:58:46.969Z,95526
2022-09-26T04:59:46.972Z,95527
2022-09-26T05:01:47.051Z,95522
2022-09-26T05:04:46.985Z,95522
2022-09-26T05:05:46.998Z,95522
2022-09-26T05:07:47.023Z,95522
2022-09-26T05:08:47.003Z,95525
2022-09-26T05:09:47.012Z,95521
2022-09-26T05:10:47.012Z,95520
2022-09-26T05:11:47.013Z,95520
2022-09-26T05:12:47.208Z,95523
2022-09-26T05:14:47.055Z,95521
2022-09-26T05:15:46.988Z,95521
2022-09-26T05:16:47.077Z,95521
2022-09-26T05:17:47.036Z,95512
2022-09-26T05:18:47.038Z,95515
2022-09-26T05:20:47.028Z,95515
2022-09-26T05:22:47.026Z,95515
2022-09-26T05:24:47.040Z,95514
2022-09-26T05:25:47.032Z,95515
2022-09-26T05:27:47.039Z,95517
2022-09-26T05:28:47.030Z,95514
2022-09-26T05:30:47.069Z,95513
2022-09-26T05:31:47.151Z,95515
2022-09-26T05:32:47.042Z,95517
2022-09-26T05:33:47.056Z,95517
2022-09-26T05:34:47.056Z,95516
2022-09-26T05:35:47.087Z,95523
2022-09-26T05:36:47.070Z,95525
2022-09-26T05:37:47.063Z,95525
2022-09-26T05:38:47.083Z,95522
2022-09-26T05:39:47.066Z,95522
2022-09-26T05:40:47.280Z,95519
2022-09-26T05:41:47.097Z,95515
2022-09-26T05:43:47.073Z,95511
2022-09-26T05:44:47.086Z,95511
2022-09-26T05:45:47.080Z,95511
2022-09-26T05:46:47.204Z,95513
2022-09-26T05:47:47.098Z,95512
2022-09-26T05:48:47.108Z,95515
2022-09-26T05:49:47.097Z,95511
2022-09-26T05:50:47.091Z,95509
2022-09-26T05:51:47.127Z,95511
2022-09-26T05:52:47.100Z,95511
2022-09-26T05:53:47.121Z,95513
2022-09-26T05:54:47.100Z,95513
2022-09-26T05:56:47.131Z,95517
2022-09-26T05:58:47.131Z,95517
2022-09-26T05:59:47.106Z,95518
2022-09-26T06:00:47.178Z,95519
2022-09-26T06:01:47.267Z,95514
2022-09-26T06:02:47.137Z,95514
2022-09-26T06:03:47.127Z,95516
2022-09-26T06:04:47.133Z,95515
2022-09-26T06:05:47.137Z,95515
2022-09-26T06:07:47.167Z,95518
2022-09-26T06:08:47.133Z,95518
2022-09-26T06:12:50.900Z,95520
2022-09-26T06:13:47.165Z,95519
2022-09-26T06:14:47.152Z,95519
2022-09-26T06:16:47.220Z,95512
2022-09-26T06:17:47.176Z,95507
2022-09-26T06:18:47.182Z,95505
2022-09-26T06:19:47.174Z,95502
2022-09-26T06:20:47.174Z,95502
2022-09-26T06:21:47.156Z,95501
2022-09-26T06:22:47.212Z,95503
2022-09-26T06:23:47.204Z,95501
2022-09-26T06:24:47.176Z,95501
2022-09-26T06:25:47.192Z,95502
2022-09-26T06:27:47.271Z,95503
2022-09-26T06:28:47.207Z,95503
2022-09-26T06:29:47.234Z,95502
2022-09-26T06:30:47.216Z,95499
2022-09-26T06:31:47.330Z,95499
2022-09-26T06:32:47.211Z,95497
2022-09-26T06:33:47.212Z,95493
2022-09-26T06:34:47.225Z,95495
2022-09-26T06:35:47.206Z,95495
2022-09-26T06:36:47.234Z,95487
2022-09-26T06:37:47.236Z,95487
2022-09-26T06:38:47.206Z,95487
2022-09-26T06:39:47.225Z,95482
2022-09-26T06:40:47.398Z,95482
2022-09-26T06:41:47.216Z,95480
2022-09-26T06:42:47.251Z,95480
2022-09-26T06:43:47.230Z,95483
2022-09-26T06:44:47.212Z,95483
2022-09-26T06:45:47.223Z,95490
2022-09-26T06:46:47.338Z,95494
2022-09-26T06:47:47.261Z,95501
2022-09-26T06:48:47.257Z,95498
2022-09-26T06:49:47.235Z,95499
2022-09-26T06:50:47.234Z,95501
2022-09-26T06:51:47.234Z,95501
2022-09-26T06:52:47.267Z,95495
2022-09-26T06:53:47.261Z,95497
2022-09-26T06:54:47.260Z,95497
2022-09-26T06:55:47.251Z,95498
2022-09-26T06:56:47.319Z,95505
2022-09-26T06:57:47.268Z,95505
2022-09-26T06:58:47.257Z,95505
2022-09-26T06:59:47.265Z,95505
2022-09-26T07:00:47.485Z,95509
2022-09-26T07:01:47.460Z,95509
2022-09-26T07:02:47.375Z,95508
2022-09-26T07:03:47.281Z,95508
2022-09-26T07:04:49.554Z,95509
2022-09-26T07:05:47.295Z,95509
2022-09-26T07:06:47.308Z,95509
2022-09-26T07:07:47.326Z,95508
2022-09-26T07:09:02.663Z,95508
2022-09-26T07:09:47.304Z,95506
2022-09-26T07:10:47.310Z,95506
2022-09-26T07:12:12.992Z,95506
2022-09-26T07:12:47.393Z,95513
2022-09-26T07:13:47.299Z,95513
2022-09-26T07:14:52.879Z,95510
2022-09-26T07:15:47.372Z,95505
2022-09-26T07:16:47.340Z,95503
2022-09-26T07:17:47.408Z,95504
2022-09-26T07:18:47.325Z,95505
2022-09-26T07:19:47.319Z,95508
2022-09-26T07:20:47.331Z,95504
2022-09-26T07:21:47.370Z,95504
2022-09-26T07:22:47.379Z,95505
2022-09-26T07:24:47.348Z,95502
2022-09-26T07:25:47.341Z,95505
2022-09-26T07:26:47.397Z,95505
2022-09-26T07:27:47.383Z,95503
2022-09-26T07:28:52.229Z,95503
2022-09-26T07:29:47.366Z,95505
2022-09-26T07:30:47.348Z,95505
2022-09-26T07:31:47.496Z,95501
2022-09-26T07:32:47.381Z,95497
2022-09-26T07:33:47.356Z,95494
2022-09-26T07:34:47.352Z,95495
2022-09-26T07:36:47.468Z,95499
2022-09-26T07:37:47.416Z,95497
2022-09-26T07:38:47.366Z,95497
2022-09-26T07:39:51.186Z,95500
2022-09-26T07:40:47.490Z,95495
2022-09-26T07:41:47.383Z,95495
2022-09-26T07:45:01.852Z,95502
2022-09-26T07:45:20.894Z,95502
2022-09-26T07:45:47.384Z,95501
2022-09-26T07:46:47.476Z,95502
2022-09-26T07:47:47.394Z,95506
2022-09-26T07:48:47.537Z,95505
2022-09-26T07:49:47.421Z,95505
2022-09-26T07:50:47.386Z,95504
2022-09-26T07:51:47.408Z,95504
2022-09-26T07:52:47.406Z,95506
2022-09-26T07:53:47.442Z,95504
2022-09-26T07:54:47.391Z,95504
2022-09-26T07:55:47.428Z,95502
2022-09-26T07:56:47.435Z,95503
2022-09-26T07:57:47.436Z,95503
2022-09-26T07:58:47.448Z,95502
2022-09-26T07:59:47.400Z,95502
2022-09-26T08:00:47.441Z,95498
2022-09-26T08:01:47.467Z,95495
2022-09-26T08:02:47.486Z,95495
2022-09-26T08:03:47.502Z,95493
2022-09-26T08:04:47.443Z,95493
2022-09-26T08:05:47.433Z,95491
2022-09-26T08:06:47.449Z,95488
2022-09-26T08:07:47.454Z,95495
2022-09-26T08:08:47.466Z,95488
2022-09-26T08:09:47.440Z,95490
2022-09-26T08:10:47.522Z,95490
2022-09-26T08:11:47.449Z,95493
2022-09-26T08:12:47.438Z,95493
2022-09-26T08:13:47.533Z,95482
2022-09-26T08:14:47.464Z,95482
2022-09-26T08:15:47.508Z,95484
2022-09-26T08:16:47.456Z,95492
2022-09-26T08:17:47.477Z,95497
2022-09-26T08:18:47.505Z,95497
2022-09-26T08:19:47.460Z,95497
2022-09-26T08:20:47.471Z,95490
2022-09-26T08:21:47.464Z,95490
2022-09-26T08:22:47.498Z,95491
2022-09-26T08:23:47.521Z,95491
2022-09-26T08:24:47.487Z,95498
2022-09-26T08:25:47.493Z,95494
2022-09-26T08:26:47.476Z,95493
2022-09-26T08:27:47.498Z,95494
2022-09-26T08:28:47.529Z,95499
2022-09-26T08:29:47.514Z,95497
2022-09-26T08:30:47.511Z,95494
2022-09-26T08:31:47.612Z,95495
2022-09-26T08:32:47.508Z,95491
2022-09-26T08:33:47.544Z,95490
2022-09-26T08:34:47.514Z,95488
2022-09-26T08:35:47.545Z,95484
2022-09-26T08:36:47.520Z,95490
2022-09-26T08:37:47.515Z,95490
2022-09-26T08:38:47.565Z,95493
2022-09-26T08:39:47.502Z,95499
2022-09-26T08:40:47.556Z,95490
2022-09-26T08:41:47.533Z,95490
2022-09-26T08:42:47.526Z,95489
2022-09-26T08:43:47.543Z,95489
2022-09-26T08:44:47.543Z,95490
2022-09-26T08:45:48.055Z,95496
2022-09-26T08:46:47.598Z,95493
2022-09-26T08:47:47.543Z,95493
2022-09-26T08:48:47.570Z,95494
2022-09-26T08:49:47.572Z,95490
2022-09-26T08:50:47.532Z,95490
2022-09-26T08:51:47.559Z,95491
2022-09-26T08:52:47.562Z,95494
2022-09-26T08:53:47.576Z,95494
2022-09-26T08:54:47.573Z,95497
2022-09-26T08:55:47.580Z,95495
2022-09-26T08:56:47.607Z,95495
2022-09-26T08:57:47.578Z,95495
2022-09-26T08:58:47.602Z,95494
2022-09-26T08:59:47.582Z,95489
2022-09-26T09:00:47.580Z,95496
2022-09-26T09:01:47.695Z,95491
2022-09-26T09:02:47.642Z,95491
2022-09-26T09:03:47.627Z,95490
2022-09-26T09:04:53.004Z,95490
2022-09-26T09:05:47.589Z,95496
2022-09-26T09:06:47.602Z,95488
2022-09-26T09:07:47.606Z,95486
2022-09-26T09:08:47.643Z,95485
2022-09-26T09:09:47.592Z,95485
2022-09-26T09:10:47.617Z,95485
2022-09-26T09:11:50.780Z,95484
2022-09-26T09:12:47.595Z,95484
2022-09-26T09:13:47.841Z,95483
2022-09-26T09:15:02.287Z,95486
2022-09-26T09:15:47.713Z,95484
2022-09-26T09:16:47.629Z,95483
2022-09-26T09:17:47.625Z,95483
2022-09-26T09:18:47.644Z,95488
2022-09-26T09:19:47.617Z,95491
2022-09-26T09:20:47.621Z,95487
2022-09-26T09:21:47.645Z,95487
2022-09-26T09:22:47.627Z,95485
2022-09-26T09:23:47.657Z,95479
2022-09-26T09:24:47.650Z,95482
2022-09-26T09:25:47.669Z,95478
2022-09-26T09:27:55.232Z,95476
2022-09-26T09:28:47.706Z,95476
2022-09-26T09:29:49.412Z,95477
2022-09-26T09:30:47.643Z,95477
2022-09-26T09:31:47.736Z,95474
2022-09-26T09:32:47.661Z,95471
2022-09-26T09:33:47.745Z,95471
2022-09-26T09:34:52.938Z,95466
2022-09-26T09:35:47.675Z,95466
2022-09-26T09:36:47.686Z,95471
2022-09-26T09:37:47.678Z,95469
2022-09-26T09:38:47.712Z,95469
2022-09-26T09:39:47.660Z,95465
2022-09-26T09:41:47.697Z,95467
2022-09-26T09:43:47.724Z,95463
2022-09-26T09:44:47.670Z,95459
2022-09-26T09:45:47.702Z,95459
2022-09-26T09:46:47.765Z,95463
2022-09-26T09:47:47.695Z,95464
2022-09-26T09:48:47.740Z,95457
2022-09-26T09:49:47.687Z,95457
2022-09-26T09:50:47.721Z,95452
2022-09-26T09:51:47.734Z,95452
2022-09-26T09:52:47.698Z,95449
2022-09-26T09:53:47.719Z,95449
2022-09-26T09:54:47.715Z,95445
2022-09-26T09:55:47.728Z,95444
2022-09-26T09:56:47.789Z,95444
2022-09-26T09:57:47.733Z,95442
2022-09-26T09:58:47.758Z,95442
2022-09-26T09:59:47.739Z,95439
2022-09-26T10:00:51.029Z,95440
2022-09-26T10:02:47.805Z,95435
2022-09-26T10:03:47.755Z,95437
2022-09-26T10:04:47.738Z,95437
2022-09-26T10:05:47.768Z,95432
2022-09-26T10:06:47.735Z,95430
2022-09-26T10:07:47.755Z,95429
2022-09-26T10:08:47.772Z,95429
2022-09-26T10:09:47.743Z,95430
2022-09-26T10:10:47.761Z,95426
2022-09-26T10:11:52.350Z,95426
2022-09-26T10:12:47.756Z,95423
2022-09-26T10:13:47.845Z,95428
2022-09-26T10:14:47.784Z,95428
2022-09-26T10:15:47.808Z,95427
2022-09-26T10:18:06.562Z,95417
2022-09-26T10:18:47.809Z,95418
2022-09-26T10:19:47.776Z,95418
2022-09-26T10:20:47.791Z,95417
2022-09-26T10:21:48.404Z,95415
2022-09-26T10:22:47.787Z,95414
2022-09-26T10:23:47.825Z,95417
2022-09-26T10:24:47.794Z,95417
2022-09-26T10:25:47.811Z,95416
2022-09-26T10:26:47.803Z,95420
2022-09-26T10:27:47.814Z,95417
2022-09-26T10:28:47.887Z,95417
2022-09-26T10:29:47.810Z,95414
2022-09-26T10:30:47.880Z,95415
2022-09-26T10:31:47.839Z,95413
2022-09-26T10:32:48.583Z,95413
2022-09-26T10:33:47.845Z,95417
2022-09-26T10:34:47.818Z,95419
2022-09-26T10:35:47.814Z,95419
2022-09-26T10:36:47.817Z,95421
2022-09-26T10:37:47.812Z,95424
2022-09-26T10:38:47.899Z,95422
2022-09-26T10:39:47.857Z,95423
2022-09-26T10:40:47.927Z,95420
2022-09-26T10:41:47.838Z,95411
2022-09-26T10:42:47.827Z,95409
2022-09-26T10:43:47.911Z,95408
2022-09-26T10:44:47.842Z,95407
2022-09-26T10:45:47.853Z,95411
2022-09-26T10:46:47.916Z,95412
2022-09-26T10:47:47.863Z,95410
2022-09-26T10:48:48.274Z,95417
2022-09-26T10:49:47.858Z,95414
2022-09-26T10:50:47.864Z,95411
2022-09-26T10:51:47.864Z,95407
2022-09-26T10:52:47.876Z,95406
2022-09-26T10:53:47.894Z,95402
2022-09-26T10:54:47.868Z,95402
2022-09-26T10:55:47.885Z,95399
2022-09-26T10:56:47.871Z,95399
2022-09-26T10:57:47.857Z,95398
2022-09-26T10:58:47.970Z,95396
2022-09-26T11:01:47.918Z,95394
2022-09-26T11:02:47.877Z,95394
2022-09-26T11:03:48.066Z,95395
2022-09-26T11:04:47.873Z,95395
2022-09-26T11:05:47.883Z,95394
2022-09-26T11:06:47.920Z,95393
2022-09-26T11:07:47.916Z,95395
2022-09-26T11:08:47.984Z,95390
2022-09-26T11:09:47.904Z,95386
2022-09-26T11:10:47.915Z,95385
2022-09-26T11:11:47.917Z,95385
2022-09-26T11:12:47.912Z,95380
2022-09-26T11:13:48.298Z,95378
2022-09-26T11:14:47.924Z,95378
2022-09-26T11:15:47.947Z,95370
2022-09-26T11:16:47.920Z,95370
2022-09-26T11:17:47.913Z,95369
2022-09-26T11:18:47.988Z,95366
2022-09-26T11:19:52.349Z,95365
2022-09-26T11:20:47.950Z,95360
2022-09-26T11:21:47.945Z,95358
2022-09-26T11:22:47.948Z,95354
2022-09-26T11:23:47.924Z,95353
2022-09-26T11:24:47.988Z,95348
2022-09-26T11:25:47.932Z,95348
2022-09-26T11:26:47.957Z,95345
2022-09-26T11:27:47.950Z,95344
2022-09-26T11:28:48.037Z,95345
2022-09-26T11:29:48.013Z,95342
2022-09-26T11:30:48.016Z,95340
2022-09-26T11:31:47.976Z,95334
2022-09-26T11:32:47.954Z,95334
2022-09-26T11:33:47.965Z,95331
2022-09-26T11:34:48.043Z,95329
2022-09-26T11:35:47.966Z,95325
2022-09-26T11:36:47.969Z,95322
2022-09-26T11:37:47.983Z,95322
2022-09-26T11:38:48.147Z,95315
2022-09-26T11:39:47.987Z,95315
2022-09-26T11:40:48.076Z,95315
2022-09-26T11:41:47.983Z,95314
2022-09-26T11:42:47.996Z,95312
2022-09-26T11:43:49.454Z,95310
2022-09-26T11:44:48.044Z,95307
2022-09-26T11:45:47.977Z,95307
2022-09-26T11:46:48.141Z,95300
2022-09-26T11:47:48.007Z,95300
2022-09-26T11:48:48.018Z,95299
2022-09-26T11:49:48.013Z,95299
2022-09-26T11:50:48.604Z,95297
2022-09-26T11:51:48.002Z,95297
2022-09-26T11:52:49.316Z,95295
2022-09-26T11:53:48.008Z,95295
2022-09-26T11:54:48.050Z,95289
2022-09-26T11:55:48.006Z,95293
2022-09-26T11:56:48.017Z,95294
2022-09-26T11:57:48.027Z,95289
2022-09-26T11:58:48.044Z,95282
2022-09-26T11:59:48.080Z,95286
2022-09-26T12:00:48.051Z,95284
2022-09-26T12:01:48.056Z,95284
2022-09-26T12:02:48.124Z,95285
2022-09-26T12:03:48.150Z,95285
2022-09-26T12:04:48.104Z,95281
2022-09-26T12:05:48.066Z,95273
2022-09-26T12:06:48.033Z,95275
2022-09-26T12:07:48.056Z,95267
2022-09-26T12:08:48.059Z,95268
2022-09-26T12:09:48.078Z,95262
2022-09-26T12:10:48.110Z,95262
2022-09-26T12:11:48.076Z,95257
2022-09-26T12:12:48.066Z,95257
2022-09-26T12:13:48.058Z,95254
2022-09-26T12:14:48.081Z,95254
2022-09-26T12:15:48.086Z,95254
2022-09-26T12:16:48.099Z,95254
2022-09-26T12:17:48.084Z,95262
2022-09-26T12:18:48.100Z,95252
2022-09-26T12:19:48.100Z,95252
2022-09-26T12:20:48.091Z,95250
2022-09-26T12:21:48.150Z,95243
2022-09-26T12:22:48.111Z,95244
2022-09-26T12:23:48.114Z,95245
2022-09-26T12:24:48.077Z,95245
2022-09-26T12:25:48.099Z,95243
2022-09-26T12:26:48.109Z,95243
2022-09-26T12:27:48.121Z,95242
2022-09-26T12:28:48.115Z,95242
2022-09-26T12:29:48.105Z,95235
2022-09-26T12:30:48.240Z,95235
2022-09-26T12:31:48.239Z,95232
2022-09-26T12:32:48.120Z,95236
2022-09-26T12:33:48.123Z,95230
2022-09-26T12:34:48.120Z,95230
2022-09-26T12:35:48.147Z,95228
2022-09-26T12:37:48.182Z,95224
2022-09-26T12:38:49.387Z,95221
2022-09-26T12:39:48.122Z,95226
2022-09-26T12:40:48.232Z,95226
2022-09-26T12:41:48.138Z,95231
2022-09-26T12:42:48.162Z,95231
2022-09-26T12:43:48.152Z,95244
2022-09-26T12:44:48.132Z,95264
2022-09-26T12:45:52.990Z,95271
2022-09-26T12:46:48.219Z,95271
2022-09-26T12:47:48.227Z,95271
2022-09-26T12:48:48.163Z,95267
2022-09-26T12:49:48.149Z,95257
2022-09-26T12:50:48.164Z,95252
2022-09-26T12:51:48.168Z,95254
2022-09-26T12:52:48.208Z,95255
2022-09-26T12:54:48.195Z,95253
2022-09-26T12:56:48.176Z,95253
2022-09-26T12:57:48.215Z,95251
2022-09-26T12:58:48.183Z,95255
2022-09-26T12:59:48.204Z,95250
2022-09-26T13:00:48.172Z,95250
2022-09-26T13:02:48.334Z,95244
2022-09-26T13:03:48.191Z,95244
2022-09-26T13:04:48.203Z,95242
2022-09-26T13:05:48.177Z,95242
2022-09-26T13:07:07.583Z,95236
2022-09-26T13:07:48.247Z,95235
2022-09-26T13:08:48.209Z,95234
2022-09-26T13:09:48.243Z,95234
2022-09-26T13:10:48.238Z,95234
2022-09-26T13:11:48.216Z,95227
2022-09-26T13:12:48.231Z,95225
2022-09-26T13:14:48.211Z,95223
2022-09-26T13:15:48.310Z,95221
2022-09-26T13:16:48.229Z,95218
2022-09-26T13:17:48.294Z,95216
2022-09-26T13:18:48.228Z,95216
2022-09-26T13:19:48.260Z,95216
2022-09-26T13:20:48.236Z,95216
2022-09-26T13:21:48.267Z,95215
2022-09-26T13:22:48.279Z,95219
2022-09-26T13:23:48.229Z,95219
2022-09-26T13:24:48.250Z,95217
2022-09-26T13:25:49.950Z,95216
2022-09-26T13:29:06.803Z,95211
2022-09-26T13:29:48.873Z,95212
2022-09-26T13:30:48.296Z,95212
2022-09-26T13:31:48.327Z,95214
2022-09-26T13:32:48.245Z,95214
2022-09-26T13:33:48.296Z,95214
2022-09-26T13:34:48.274Z,95215
2022-09-26T13:39:48.319Z,95208
2022-09-26T13:40:48.343Z,95208
2022-09-26T13:41:48.282Z,95204
2022-09-26T13:42:48.294Z,95200
2022-09-26T13:43:48.285Z,95197
2022-09-26T13:45:48.347Z,95196
2022-09-26T13:46:48.371Z,95196
2022-09-26T13:49:48.308Z,95192
2022-09-26T13:50:48.413Z,95192
2022-09-26T13:51:49.713Z,95192
2022-09-26T13:52:48.334Z,95189
2022-09-26T13:54:48.358Z,95188
2022-09-26T13:55:48.334Z,95188
2022-09-26T13:56:48.358Z,95183
2022-09-26T13:57:48.318Z,95183
2022-09-26T13:58:48.335Z,95185
2022-09-26T13:59:48.331Z,95185
2022-09-26T14:00:48.373Z,95179
2022-09-26T14:01:48.386Z,95178
2022-09-26T14:03:48.350Z,95176
2022-09-26T14:04:48.371Z,95172
2022-09-26T14:05:48.413Z,95172
2022-09-26T14:06:48.392Z,95171
2022-09-26T14:07:48.366Z,95171
2022-09-26T14:08:48.341Z,95172
2022-09-26T14:09:50.816Z,95167
2022-09-26T14:10:48.404Z,95170
2022-09-26T14:11:48.378Z,95166
2022-09-26T14:12:48.370Z,95164
2022-09-26T14:13:48.357Z,95163
2022-09-26T14:14:48.377Z,95163
2022-09-26T14:15:48.561Z,95163
2022-09-26T14:16:48.401Z,95162
2022-09-26T14:18:48.382Z,95159
2022-09-26T14:20:48.430Z,95158
2022-09-26T14:21:48.385Z,95158
2022-09-26T14:22:48.406Z,95153
2022-09-26T14:23:48.390Z,95153
2022-09-26T14:24:48.399Z,95150
2022-09-26T14:25:48.425Z,95149
2022-09-26T14:26:48.424Z,95142
2022-09-26T14:27:48.402Z,95144
2022-09-26T14:29:48.401Z,95138
2022-09-26T14:30:48.485Z,95142
2022-09-26T14:31:48.417Z,95137
2022-09-26T14:32:48.429Z,95134
2022-09-26T14:33:48.414Z,95134
2022-09-26T14:34:48.429Z,95133
2022-09-26T14:35:48.448Z,95132
2022-09-26T14:36:48.415Z,95128
2022-09-26T14:37:48.442Z,95125
2022-09-26T14:38:48.436Z,95126
2022-09-26T14:39:48.460Z,95125
2022-09-26T14:40:48.526Z,95131
2022-09-26T14:42:48.456Z,95127
2022-09-26T14:43:48.436Z,95127
2022-09-26T14:44:48.462Z,95125
2022-09-26T14:45:48.472Z,95125
2022-09-26T14:46:48.505Z,95126
2022-09-26T14:47:48.461Z,95128
2022-09-26T14:48:48.441Z,95128
2022-09-26T14:49:48.483Z,95125
2022-09-26T14:50:48.508Z,95123
2022-09-26T14:51:48.486Z,95124
2022-09-26T14:52:48.475Z,95121
2022-09-26T14:53:48.456Z,95122
2022-09-26T14:54:48.474Z,95122
2022-09-26T14:55:48.506Z,95120
2022-09-26T14:56:48.497Z,95121
2022-09-26T14:58:48.485Z,95121
2022-09-26T14:59:48.489Z,95118
2022-09-26T15:02:48.582Z,95113
2022-09-26T15:06:48.508Z,95116
2022-09-26T15:07:48.542Z,95113
2022-09-26T15:08:48.561Z,95106
2022-09-26T15:09:48.501Z,95106
2022-09-26T15:10:48.520Z,95104
2022-09-26T15:11:48.502Z,95104
2022-09-26T15:12:48.555Z,95101
2022-09-26T15:13:48.534Z,95093
2022-09-26T15:15:48.671Z,95094
2022-09-26T15:16:48.503Z,95092
2022-09-26T15:17:48.554Z,95095
2022-09-26T15:18:48.574Z,95087
2022-09-26T15:19:48.514Z,95087
2022-09-26T15:20:48.580Z,95088
2022-09-26T15:21:48.598Z,95091
2022-09-26T15:22:48.585Z,95092
2022-09-26T15:23:48.536Z,95092
2022-09-26T15:24:48.587Z,95085
2022-09-26T15:25:48.553Z,95085
2022-09-26T15:26:48.578Z,95086
2022-09-26T15:27:48.625Z,95084
2022-09-26T15:28:48.576Z,95077